sensor_id;sensor_type;location;lat;lon;timestamp;P1;durP1;ratioP1;P2;durP2;ratioP2
53040;SDS011;39326;42.650;23.248;2023-04-01T00:00:18;4.40;;;1.90;;
53040;SDS011;39326;42.650;23.248;2023-04-01T00:02:45;6.82;;;2.33;;
53040;SDS011;39326;42.650;23.248;2023-04-01T00:05:11;4.17;;;2.13;;
53040;SDS011;39326;42.650;23.248;2023-04-01T00:07:38;4.73;;;2.10;;
53040;SDS011;39326;42.650;23.248;2023-04-01T00:10:05;3.22;;;2.13;;
53040;SDS011;39326;42.650;23.248;2023-04-01T00:12:32;5.37;;;2.47;;
53040;SDS011;39326;42.650;23.248;2023-04-01T00:14:57;3.10;;;1.95;;
53040;SDS011;39326;42.650;23.248;2023-04-01T00:17:24;4.45;;;2.13;;
53040;SDS011;39326;42.650;23.248;2023-04-01T00:19:50;4.63;;;2.10;;
53040;SDS011;39326;42.650;23.248;2023-04-01T00:22:16;4.38;;;2.05;;
53040;SDS011;39326;42.650;23.248;2023-04-01T00:24:41;5.37;;;2.03;;
53040;SDS011;39326;42.650;23.248;2023-04-01T00:27:07;4.53;;;1.95;;
53040;SDS011;39326;42.650;23.248;2023-04-01T00:29:34;5.05;;;2.28;;
53040;SDS011;39326;42.650;23.248;2023-04-01T00:31:59;4.25;;;1.55;;
53040;SDS011;39326;42.650;23.248;2023-04-01T00:34:25;4.93;;;1.83;;
53040;SDS011;39326;42.650;23.248;2023-04-01T00:36:52;3.83;;;2.17;;
53040;SDS011;39326;42.650;23.248;2023-04-01T00:39:20;4.05;;;1.92;;
53040;SDS011;39326;42.650;23.248;2023-04-01T00:41:46;3.43;;;1.83;;
53040;SDS011;39326;42.650;23.248;2023-04-01T00:44:23;2.78;;;1.60;;
53040;SDS011;39326;42.650;23.248;2023-04-01T00:46:51;2.72;;;1.58;;
53040;SDS011;39326;42.650;23.248;2023-04-01T00:49:18;2.43;;;1.93;;
53040;SDS011;39326;42.650;23.248;2023-04-01T00:51:48;4.85;;;2.00;;
53040;SDS011;39326;42.650;23.248;2023-04-01T00:54:18;6.43;;;4.10;;
53040;SDS011;39326;42.650;23.248;2023-04-01T00:56:47;14.73;;;10.43;;
53040;SDS011;39326;42.650;23.248;2023-04-01T00:59:18;13.13;;;9.48;;
53040;SDS011;39326;42.650;23.248;2023-04-01T01:01:49;11.07;;;9.17;;
53040;SDS011;39326;42.650;23.248;2023-04-01T01:09:34;4.68;;;2.25;;
53040;SDS011;39326;42.650;23.248;2023-04-01T01:34:49;8.07;;;5.70;;
53040;SDS011;39326;42.650;23.248;2023-04-01T01:37:18;10.23;;;5.70;;
53040;SDS011;39326;42.650;23.248;2023-04-01T01:39:51;4.00;;;3.40;;
53040;SDS011;39326;42.650;23.248;2023-04-01T01:42:27;7.33;;;4.00;;
53040;SDS011;39326;42.650;23.248;2023-04-01T01:44:56;7.80;;;4.47;;
53040;SDS011;39326;42.650;23.248;2023-04-01T01:47:25;6.53;;;3.83;;
53040;SDS011;39326;42.650;23.248;2023-04-01T01:49:53;3.43;;;3.07;;
53040;SDS011;39326;42.650;23.248;2023-04-01T01:52:21;7.37;;;3.70;;
53040;SDS011;39326;42.650;23.248;2023-04-01T01:54:48;2.87;;;1.53;;
53040;SDS011;39326;42.650;23.248;2023-04-01T01:57:16;4.27;;;1.70;;
53040;SDS011;39326;42.650;23.248;2023-04-01T01:59:45;4.17;;;1.70;;
53040;SDS011;39326;42.650;23.248;2023-04-01T02:02:13;2.70;;;1.83;;
53040;SDS011;39326;42.650;23.248;2023-04-01T02:04:41;5.10;;;2.47;;
53040;SDS011;39326;42.650;23.248;2023-04-01T02:07:22;6.33;;;2.10;;
53040;SDS011;39326;42.650;23.248;2023-04-01T02:09:52;6.07;;;3.07;;
53040;SDS011;39326;42.650;23.248;2023-04-01T02:12:19;6.30;;;3.90;;
53040;SDS011;39326;42.650;23.248;2023-04-01T02:14:59;5.67;;;3.70;;
53040;SDS011;39326;42.650;23.248;2023-04-01T02:17:34;4.88;;;3.80;;
53040;SDS011;39326;42.650;23.248;2023-04-01T02:20:07;8.25;;;3.85;;
53040;SDS011;39326;42.650;23.248;2023-04-01T02:22:38;5.32;;;3.95;;
53040;SDS011;39326;42.650;23.248;2023-04-01T02:25:09;6.93;;;4.87;;
53040;SDS011;39326;42.650;23.248;2023-04-01T02:27:40;4.90;;;3.42;;
53040;SDS011;39326;42.650;23.248;2023-04-01T02:30:09;6.22;;;3.17;;
53040;SDS011;39326;42.650;23.248;2023-04-01T02:32:36;4.23;;;3.33;;
53040;SDS011;39326;42.650;23.248;2023-04-01T02:35:10;7.80;;;4.00;;
53040;SDS011;39326;42.650;23.248;2023-04-01T02:37:38;5.97;;;4.43;;
53040;SDS011;39326;42.650;23.248;2023-04-01T02:40:08;7.95;;;3.95;;
53040;SDS011;39326;42.650;23.248;2023-04-01T02:42:36;8.27;;;4.30;;
53040;SDS011;39326;42.650;23.248;2023-04-01T02:45:03;7.60;;;4.47;;
53040;SDS011;39326;42.650;23.248;2023-04-01T02:47:29;5.27;;;3.93;;
53040;SDS011;39326;42.650;23.248;2023-04-01T02:49:57;4.80;;;3.10;;
53040;SDS011;39326;42.650;23.248;2023-04-01T02:52:24;4.63;;;3.17;;
53040;SDS011;39326;42.650;23.248;2023-04-01T02:54:51;4.45;;;3.50;;
53040;SDS011;39326;42.650;23.248;2023-04-01T02:57:17;8.30;;;4.07;;
53040;SDS011;39326;42.650;23.248;2023-04-01T02:59:43;5.97;;;3.47;;
53040;SDS011;39326;42.650;23.248;2023-04-01T03:02:09;6.33;;;3.10;;
53040;SDS011;39326;42.650;23.248;2023-04-01T03:04:36;6.30;;;2.97;;
53040;SDS011;39326;42.650;23.248;2023-04-01T03:07:02;5.37;;;2.60;;
53040;SDS011;39326;42.650;23.248;2023-04-01T03:09:28;7.00;;;2.60;;
53040;SDS011;39326;42.650;23.248;2023-04-01T03:11:55;4.87;;;2.10;;
53040;SDS011;39326;42.650;23.248;2023-04-01T03:14:21;5.50;;;2.15;;
53040;SDS011;39326;42.650;23.248;2023-04-01T03:16:48;4.03;;;2.03;;
53040;SDS011;39326;42.650;23.248;2023-04-01T03:19:14;4.83;;;2.00;;
53040;SDS011;39326;42.650;23.248;2023-04-01T03:21:40;3.10;;;1.55;;
53040;SDS011;39326;42.650;23.248;2023-04-01T03:24:06;4.73;;;2.00;;
53040;SDS011;39326;42.650;23.248;2023-04-01T03:26:33;7.43;;;1.97;;
53040;SDS011;39326;42.650;23.248;2023-04-01T03:28:59;3.70;;;1.83;;
53040;SDS011;39326;42.650;23.248;2023-04-01T03:31:26;2.10;;;1.60;;
53040;SDS011;39326;42.650;23.248;2023-04-01T03:33:52;3.43;;;1.80;;
53040;SDS011;39326;42.650;23.248;2023-04-01T03:36:19;5.57;;;1.90;;
53040;SDS011;39326;42.650;23.248;2023-04-01T03:38:45;3.40;;;1.40;;
53040;SDS011;39326;42.650;23.248;2023-04-01T03:41:15;2.75;;;2.00;;
53040;SDS011;39326;42.650;23.248;2023-04-01T03:43:42;2.67;;;1.40;;
53040;SDS011;39326;42.650;23.248;2023-04-01T03:46:09;6.07;;;1.97;;
53040;SDS011;39326;42.650;23.248;2023-04-01T03:48:36;3.77;;;1.90;;
53040;SDS011;39326;42.650;23.248;2023-04-01T03:51:06;6.37;;;1.93;;
53040;SDS011;39326;42.650;23.248;2023-04-01T03:53:32;4.57;;;1.80;;
53040;SDS011;39326;42.650;23.248;2023-04-01T03:55:58;5.10;;;2.10;;
53040;SDS011;39326;42.650;23.248;2023-04-01T03:58:28;5.87;;;1.87;;
53040;SDS011;39326;42.650;23.248;2023-04-01T04:00:54;3.20;;;1.67;;
53040;SDS011;39326;42.650;23.248;2023-04-01T04:03:20;4.63;;;2.60;;
53040;SDS011;39326;42.650;23.248;2023-04-01T04:05:47;4.50;;;2.30;;
53040;SDS011;39326;42.650;23.248;2023-04-01T04:08:13;4.90;;;2.43;;
53040;SDS011;39326;42.650;23.248;2023-04-01T04:10:40;3.57;;;2.27;;
53040;SDS011;39326;42.650;23.248;2023-04-01T04:13:06;4.80;;;2.72;;
53040;SDS011;39326;42.650;23.248;2023-04-01T04:15:33;3.67;;;2.23;;
53040;SDS011;39326;42.650;23.248;2023-04-01T04:17:58;4.32;;;2.67;;
53040;SDS011;39326;42.650;23.248;2023-04-01T04:20:25;3.40;;;1.92;;
53040;SDS011;39326;42.650;23.248;2023-04-01T04:22:51;3.93;;;2.07;;
53040;SDS011;39326;42.650;23.248;2023-04-01T04:25:17;3.57;;;1.90;;
53040;SDS011;39326;42.650;23.248;2023-04-01T04:27:43;5.40;;;2.30;;
53040;SDS011;39326;42.650;23.248;2023-04-01T04:30:09;5.57;;;2.10;;
53040;SDS011;39326;42.650;23.248;2023-04-01T04:32:35;5.20;;;2.10;;
53040;SDS011;39326;42.650;23.248;2023-04-01T04:35:02;2.70;;;1.93;;
53040;SDS011;39326;42.650;23.248;2023-04-01T04:37:29;4.13;;;2.00;;
53040;SDS011;39326;42.650;23.248;2023-04-01T04:39:55;4.00;;;2.10;;
53040;SDS011;39326;42.650;23.248;2023-04-01T04:42:21;5.60;;;2.30;;
53040;SDS011;39326;42.650;23.248;2023-04-01T04:44:47;4.07;;;1.87;;
53040;SDS011;39326;42.650;23.248;2023-04-01T04:47:13;4.97;;;2.10;;
53040;SDS011;39326;42.650;23.248;2023-04-01T04:49:40;3.60;;;1.97;;
53040;SDS011;39326;42.650;23.248;2023-04-01T04:52:06;5.10;;;2.50;;
53040;SDS011;39326;42.650;23.248;2023-04-01T04:54:32;5.60;;;3.60;;
53040;SDS011;39326;42.650;23.248;2023-04-01T04:56:58;8.67;;;4.90;;
53040;SDS011;39326;42.650;23.248;2023-04-01T04:59:24;10.37;;;5.23;;
53040;SDS011;39326;42.650;23.248;2023-04-01T05:01:51;6.87;;;5.00;;
53040;SDS011;39326;42.650;23.248;2023-04-01T05:04:17;5.50;;;4.35;;
53040;SDS011;39326;42.650;23.248;2023-04-01T05:06:43;7.73;;;4.40;;
53040;SDS011;39326;42.650;23.248;2023-04-01T05:09:12;8.67;;;5.10;;
53040;SDS011;39326;42.650;23.248;2023-04-01T05:11:38;6.13;;;4.00;;
53040;SDS011;39326;42.650;23.248;2023-04-01T05:14:05;8.53;;;4.37;;
53040;SDS011;39326;42.650;23.248;2023-04-01T05:16:32;6.63;;;3.93;;
53040;SDS011;39326;42.650;23.248;2023-04-01T05:18:57;8.20;;;4.57;;
53040;SDS011;39326;42.650;23.248;2023-04-01T05:21:23;5.47;;;3.57;;
53040;SDS011;39326;42.650;23.248;2023-04-01T05:23:49;5.50;;;3.67;;
53040;SDS011;39326;42.650;23.248;2023-04-01T05:26:15;10.10;;;8.83;;
53040;SDS011;39326;42.650;23.248;2023-04-01T05:28:41;10.93;;;9.43;;
53040;SDS011;39326;42.650;23.248;2023-04-01T05:31:08;8.00;;;6.28;;
53040;SDS011;39326;42.650;23.248;2023-04-01T05:33:34;7.37;;;4.27;;
53040;SDS011;39326;42.650;23.248;2023-04-01T05:36:07;8.10;;;5.60;;
53040;SDS011;39326;42.650;23.248;2023-04-01T05:38:38;8.97;;;4.80;;
53040;SDS011;39326;42.650;23.248;2023-04-01T05:41:04;7.60;;;5.23;;
53040;SDS011;39326;42.650;23.248;2023-04-01T05:43:30;6.33;;;4.80;;
53040;SDS011;39326;42.650;23.248;2023-04-01T05:45:57;9.67;;;5.27;;
53040;SDS011;39326;42.650;23.248;2023-04-01T05:48:23;8.87;;;5.60;;
53040;SDS011;39326;42.650;23.248;2023-04-01T05:50:49;7.53;;;5.10;;
53040;SDS011;39326;42.650;23.248;2023-04-01T05:53:16;5.87;;;4.93;;
53040;SDS011;39326;42.650;23.248;2023-04-01T05:55:41;7.25;;;5.65;;
53040;SDS011;39326;42.650;23.248;2023-04-01T05:58:08;7.80;;;5.53;;
53040;SDS011;39326;42.650;23.248;2023-04-01T06:00:34;9.70;;;6.03;;
53040;SDS011;39326;42.650;23.248;2023-04-01T06:03:00;6.55;;;5.28;;
53040;SDS011;39326;42.650;23.248;2023-04-01T06:05:29;7.67;;;5.70;;
53040;SDS011;39326;42.650;23.248;2023-04-01T06:08:05;9.23;;;5.55;;
53040;SDS011;39326;42.650;23.248;2023-04-01T06:18:50;5.70;;;4.30;;
53040;SDS011;39326;42.650;23.248;2023-04-01T06:24:26;9.67;;;4.90;;
53040;SDS011;39326;42.650;23.248;2023-04-01T06:35:53;6.87;;;5.00;;
53040;SDS011;39326;42.650;23.248;2023-04-01T06:47:09;7.47;;;4.10;;
53040;SDS011;39326;42.650;23.248;2023-04-01T06:50:16;5.80;;;4.67;;
53040;SDS011;39326;42.650;23.248;2023-04-01T06:52:51;6.40;;;4.87;;
53040;SDS011;39326;42.650;23.248;2023-04-01T06:55:32;8.82;;;4.82;;
53040;SDS011;39326;42.650;23.248;2023-04-01T06:58:05;7.78;;;4.20;;
53040;SDS011;39326;42.650;23.248;2023-04-01T07:00:43;6.70;;;4.20;;
53040;SDS011;39326;42.650;23.248;2023-04-01T07:05:59;6.68;;;4.05;;
53040;SDS011;39326;42.650;23.248;2023-04-01T07:08:29;4.93;;;3.75;;
53040;SDS011;39326;42.650;23.248;2023-04-01T07:11:01;6.72;;;4.00;;
53040;SDS011;39326;42.650;23.248;2023-04-01T07:13:31;4.82;;;3.95;;
53040;SDS011;39326;42.650;23.248;2023-04-01T07:16:25;7.43;;;3.90;;
53040;SDS011;39326;42.650;23.248;2023-04-01T07:18:57;6.68;;;5.20;;
53040;SDS011;39326;42.650;23.248;2023-04-01T07:24:23;10.57;;;4.93;;
53040;SDS011;39326;42.650;23.248;2023-04-01T07:26:53;8.80;;;4.88;;
53040;SDS011;39326;42.650;23.248;2023-04-01T07:29:20;9.45;;;5.35;;
53040;SDS011;39326;42.650;23.248;2023-04-01T07:32:05;7.13;;;4.67;;
53040;SDS011;39326;42.650;23.248;2023-04-01T07:45:44;8.00;;;5.50;;
53040;SDS011;39326;42.650;23.248;2023-04-01T07:50:57;8.73;;;4.82;;
53040;SDS011;39326;42.650;23.248;2023-04-01T08:07:24;8.65;;;5.75;;
53040;SDS011;39326;42.650;23.248;2023-04-01T08:18:00;9.90;;;6.05;;
53040;SDS011;39326;42.650;23.248;2023-04-01T08:20:37;7.95;;;5.85;;
53040;SDS011;39326;42.650;23.248;2023-04-01T08:25:52;9.88;;;6.30;;
53040;SDS011;39326;42.650;23.248;2023-04-01T08:28:33;10.27;;;6.30;;
53040;SDS011;39326;42.650;23.248;2023-04-01T08:31:08;9.10;;;6.33;;
53040;SDS011;39326;42.650;23.248;2023-04-01T08:33:47;10.93;;;6.30;;
53040;SDS011;39326;42.650;23.248;2023-04-01T08:36:21;11.97;;;6.37;;
53040;SDS011;39326;42.650;23.248;2023-04-01T08:39:10;10.30;;;6.93;;
53040;SDS011;39326;42.650;23.248;2023-04-01T08:47:30;12.55;;;7.50;;
53040;SDS011;39326;42.650;23.248;2023-04-01T08:59:14;11.27;;;7.15;;
53040;SDS011;39326;42.650;23.248;2023-04-01T09:18:36;10.23;;;5.57;;
53040;SDS011;39326;42.650;23.248;2023-04-01T09:44:03;9.73;;;2.20;;
53040;SDS011;39326;42.650;23.248;2023-04-01T09:55:50;8.60;;;2.63;;
53040;SDS011;39326;42.650;23.248;2023-04-01T10:04:15;5.32;;;2.47;;
53040;SDS011;39326;42.650;23.248;2023-04-01T10:14:47;8.10;;;2.60;;
53040;SDS011;39326;42.650;23.248;2023-04-01T10:17:24;4.40;;;1.98;;
53040;SDS011;39326;42.650;23.248;2023-04-01T10:28:16;4.53;;;1.88;;
53040;SDS011;39326;42.650;23.248;2023-04-01T10:36:54;7.03;;;2.20;;
53040;SDS011;39326;42.650;23.248;2023-04-01T10:39:34;5.32;;;2.30;;
53040;SDS011;39326;42.650;23.248;2023-04-01T10:48:10;5.63;;;1.95;;
53040;SDS011;39326;42.650;23.248;2023-04-01T10:59:06;5.43;;;2.40;;
53040;SDS011;39326;42.650;23.248;2023-04-01T11:22:26;8.15;;;2.15;;
53040;SDS011;39326;42.650;23.248;2023-04-01T11:33:22;4.95;;;2.20;;
53040;SDS011;39326;42.650;23.248;2023-04-01T11:36:03;2.35;;;1.85;;
53040;SDS011;39326;42.650;23.248;2023-04-01T11:44:27;5.10;;;2.17;;
53040;SDS011;39326;42.650;23.248;2023-04-01T11:49:56;5.22;;;2.80;;
53040;SDS011;39326;42.650;23.248;2023-04-01T11:58:44;6.43;;;2.93;;
53040;SDS011;39326;42.650;23.248;2023-04-01T12:04:22;7.28;;;3.28;;
53040;SDS011;39326;42.650;23.248;2023-04-01T12:07:03;5.00;;;3.00;;
53040;SDS011;39326;42.650;23.248;2023-04-01T12:09:46;5.13;;;2.60;;
53040;SDS011;39326;42.650;23.248;2023-04-01T12:15:34;5.77;;;2.57;;
53040;SDS011;39326;42.650;23.248;2023-04-01T12:33:04;2.97;;;2.13;;
53040;SDS011;39326;42.650;23.248;2023-04-01T12:58:15;5.40;;;2.70;;
53040;SDS011;39326;42.650;23.248;2023-04-01T13:17:20;1.70;;;1.00;;
53040;SDS011;39326;42.650;23.248;2023-04-01T13:20:11;2.60;;;1.40;;
53040;SDS011;39326;42.650;23.248;2023-04-01T13:25:32;1.63;;;1.10;;
53040;SDS011;39326;42.650;23.248;2023-04-01T13:28:08;1.85;;;0.95;;
53040;SDS011;39326;42.650;23.248;2023-04-01T13:33:42;1.87;;;1.00;;
53040;SDS011;39326;42.650;23.248;2023-04-01T13:38:52;1.87;;;1.37;;
53040;SDS011;39326;42.650;23.248;2023-04-01T13:44:05;2.17;;;1.50;;
53040;SDS011;39326;42.650;23.248;2023-04-01T13:47:06;2.27;;;1.40;;
53040;SDS011;39326;42.650;23.248;2023-04-01T14:06:31;1.70;;;1.50;;
53040;SDS011;39326;42.650;23.248;2023-04-01T14:26:07;2.80;;;1.60;;
53040;SDS011;39326;42.650;23.248;2023-04-01T14:28:43;2.88;;;1.10;;
53040;SDS011;39326;42.650;23.248;2023-04-01T14:44:57;1.48;;;1.10;;
53040;SDS011;39326;42.650;23.248;2023-04-01T14:47:38;1.52;;;1.02;;
53040;SDS011;39326;42.650;23.248;2023-04-01T14:50:28;1.83;;;0.90;;
53040;SDS011;39326;42.650;23.248;2023-04-01T14:58:14;2.20;;;1.00;;
53040;SDS011;39326;42.650;23.248;2023-04-01T15:03:40;2.57;;;1.43;;
53040;SDS011;39326;42.650;23.248;2023-04-01T15:14:55;1.58;;;1.45;;
53040;SDS011;39326;42.650;23.248;2023-04-01T15:20:01;1.50;;;1.10;;
53040;SDS011;39326;42.650;23.248;2023-04-01T15:22:49;1.83;;;0.97;;
53040;SDS011;39326;42.650;23.248;2023-04-01T15:36:44;3.23;;;1.53;;
53040;SDS011;39326;42.650;23.248;2023-04-01T15:39:19;2.67;;;1.37;;
53040;SDS011;39326;42.650;23.248;2023-04-01T15:47:33;2.55;;;1.25;;
53040;SDS011;39326;42.650;23.248;2023-04-01T15:53:01;1.57;;;1.03;;
53040;SDS011;39326;42.650;23.248;2023-04-01T16:15:16;1.30;;;1.20;;
53040;SDS011;39326;42.650;23.248;2023-04-01T16:23:20;2.43;;;2.10;;
53040;SDS011;39326;42.650;23.248;2023-04-01T16:31:43;1.60;;;1.00;;
53040;SDS011;39326;42.650;23.248;2023-04-01T16:34:36;1.57;;;0.80;;
53040;SDS011;39326;42.650;23.248;2023-04-01T16:37:07;1.83;;;0.87;;
53040;SDS011;39326;42.650;23.248;2023-04-01T16:44:52;0.40;;;0.37;;
53040;SDS011;39326;42.650;23.248;2023-04-01T16:47:27;1.00;;;0.70;;
53040;SDS011;39326;42.650;23.248;2023-04-01T16:50:04;1.03;;;0.70;;
53040;SDS011;39326;42.650;23.248;2023-04-01T16:55:19;0.63;;;0.50;;
53040;SDS011;39326;42.650;23.248;2023-04-01T16:57:50;3.10;;;2.80;;
53040;SDS011;39326;42.650;23.248;2023-04-01T17:11:16;1.83;;;1.40;;
53040;SDS011;39326;42.650;23.248;2023-04-01T17:24:52;1.63;;;1.37;;
53040;SDS011;39326;42.650;23.248;2023-04-01T17:27:35;1.13;;;0.93;;
53040;SDS011;39326;42.650;23.248;2023-04-01T17:30:09;1.13;;;1.03;;
53040;SDS011;39326;42.650;23.248;2023-04-01T18:01:03;0.93;;;0.93;;
53040;SDS011;39326;42.650;23.248;2023-04-01T18:06:10;0.80;;;0.80;;
53040;SDS011;39326;42.650;23.248;2023-04-01T18:08:58;1.13;;;1.07;;
53040;SDS011;39326;42.650;23.248;2023-04-01T18:23:59;1.63;;;1.10;;
53040;SDS011;39326;42.650;23.248;2023-04-01T18:26:36;1.93;;;1.30;;
53040;SDS011;39326;42.650;23.248;2023-04-01T18:37:53;1.90;;;1.63;;
53040;SDS011;39326;42.650;23.248;2023-04-01T18:40:32;3.47;;;2.10;;
53040;SDS011;39326;42.650;23.248;2023-04-01T18:43:30;2.33;;;1.90;;
53040;SDS011;39326;42.650;23.248;2023-04-01T18:46:05;1.93;;;1.70;;
53040;SDS011;39326;42.650;23.248;2023-04-01T18:48:46;2.50;;;1.87;;
53040;SDS011;39326;42.650;23.248;2023-04-01T18:54:17;1.70;;;1.40;;
53040;SDS011;39326;42.650;23.248;2023-04-01T18:56:49;1.90;;;1.20;;
53040;SDS011;39326;42.650;23.248;2023-04-01T19:01:55;1.13;;;0.97;;
53040;SDS011;39326;42.650;23.248;2023-04-01T19:04:39;1.73;;;1.30;;
53040;SDS011;39326;42.650;23.248;2023-04-01T19:09:54;1.03;;;1.00;;
53040;SDS011;39326;42.650;23.248;2023-04-01T19:12:34;2.87;;;1.20;;
53040;SDS011;39326;42.650;23.248;2023-04-01T19:26:22;1.87;;;1.30;;
53040;SDS011;39326;42.650;23.248;2023-04-01T19:36:49;1.40;;;1.20;;
53040;SDS011;39326;42.650;23.248;2023-04-01T19:42:32;1.30;;;1.20;;
53040;SDS011;39326;42.650;23.248;2023-04-01T19:50:34;1.43;;;1.10;;
53040;SDS011;39326;42.650;23.248;2023-04-01T19:53:15;1.03;;;0.97;;
53040;SDS011;39326;42.650;23.248;2023-04-01T19:55:48;1.53;;;1.40;;
53040;SDS011;39326;42.650;23.248;2023-04-01T20:00:57;2.03;;;1.20;;
53040;SDS011;39326;42.650;23.248;2023-04-01T20:09:00;1.30;;;1.20;;
53040;SDS011;39326;42.650;23.248;2023-04-01T20:11:58;1.57;;;1.47;;
53040;SDS011;39326;42.650;23.248;2023-04-01T20:14:45;1.30;;;1.20;;
53040;SDS011;39326;42.650;23.248;2023-04-01T20:17:15;1.20;;;1.10;;
53040;SDS011;39326;42.650;23.248;2023-04-01T20:19:58;1.30;;;1.20;;
53040;SDS011;39326;42.650;23.248;2023-04-01T20:25:09;1.20;;;1.10;;
53040;SDS011;39326;42.650;23.248;2023-04-01T20:27:42;3.03;;;1.43;;
53040;SDS011;39326;42.650;23.248;2023-04-01T20:35:45;1.33;;;1.13;;
53040;SDS011;39326;42.650;23.248;2023-04-01T20:41:20;1.53;;;1.00;;
53040;SDS011;39326;42.650;23.248;2023-04-01T20:46:48;2.77;;;1.30;;
53040;SDS011;39326;42.650;23.248;2023-04-01T20:49:33;1.30;;;1.20;;
53040;SDS011;39326;42.650;23.248;2023-04-01T20:57:17;1.93;;;1.50;;
53040;SDS011;39326;42.650;23.248;2023-04-01T20:59:54;2.03;;;1.37;;
53040;SDS011;39326;42.650;23.248;2023-04-01T21:03:05;2.10;;;1.30;;
53040;SDS011;39326;42.650;23.248;2023-04-01T21:05:48;0.93;;;0.83;;
53040;SDS011;39326;42.650;23.248;2023-04-01T21:08:23;1.63;;;1.17;;
53040;SDS011;39326;42.650;23.248;2023-04-01T21:11:01;1.87;;;1.13;;
53040;SDS011;39326;42.650;23.248;2023-04-01T21:16:33;1.40;;;1.30;;
53040;SDS011;39326;42.650;23.248;2023-04-01T21:24:48;1.17;;;1.07;;
53040;SDS011;39326;42.650;23.248;2023-04-01T21:40:38;0.80;;;0.80;;
53040;SDS011;39326;42.650;23.248;2023-04-01T22:10:20;0.80;;;0.63;;
53040;SDS011;39326;42.650;23.248;2023-04-01T22:12:59;0.60;;;0.60;;
53040;SDS011;39326;42.650;23.248;2023-04-01T22:18:36;2.80;;;0.73;;
53040;SDS011;39326;42.650;23.248;2023-04-01T22:24:11;1.47;;;0.57;;
53040;SDS011;39326;42.650;23.248;2023-04-01T22:26:53;1.20;;;0.73;;
53040;SDS011;39326;42.650;23.248;2023-04-01T22:32:15;1.23;;;0.70;;
53040;SDS011;39326;42.650;23.248;2023-04-01T22:35:09;0.80;;;0.60;;
53040;SDS011;39326;42.650;23.248;2023-04-01T22:40:23;0.80;;;0.60;;
53040;SDS011;39326;42.650;23.248;2023-04-01T22:42:59;1.07;;;0.70;;
53040;SDS011;39326;42.650;23.248;2023-04-01T22:48:28;1.83;;;0.60;;
53040;SDS011;39326;42.650;23.248;2023-04-01T22:56:16;1.57;;;0.80;;
53040;SDS011;39326;42.650;23.248;2023-04-01T22:59:10;0.67;;;0.40;;
53040;SDS011;39326;42.650;23.248;2023-04-01T23:01:40;1.13;;;0.50;;
53040;SDS011;39326;42.650;23.248;2023-04-01T23:04:12;0.60;;;0.50;;
53040;SDS011;39326;42.650;23.248;2023-04-01T23:06:43;0.50;;;0.40;;
53040;SDS011;39326;42.650;23.248;2023-04-01T23:20:10;0.50;;;0.50;;
53040;SDS011;39326;42.650;23.248;2023-04-01T23:22:46;0.70;;;0.60;;
53040;SDS011;39326;42.650;23.248;2023-04-01T23:25:27;0.57;;;0.43;;
53040;SDS011;39326;42.650;23.248;2023-04-01T23:28:22;1.27;;;0.50;;
53040;SDS011;39326;42.650;23.248;2023-04-01T23:30:56;0.70;;;0.40;;
53040;SDS011;39326;42.650;23.248;2023-04-01T23:33:22;0.70;;;0.40;;
53040;SDS011;39326;42.650;23.248;2023-04-01T23:38:39;0.77;;;0.50;;
53040;SDS011;39326;42.650;23.248;2023-04-01T23:41:06;0.50;;;0.50;;
53040;SDS011;39326;42.650;23.248;2023-04-01T23:43:36;0.50;;;0.47;;
53040;SDS011;39326;42.650;23.248;2023-04-01T23:46:05;0.87;;;0.60;;
53040;SDS011;39326;42.650;23.248;2023-04-01T23:48:36;0.50;;;0.50;;
53040;SDS011;39326;42.650;23.248;2023-04-01T23:51:02;1.47;;;0.40;;
53040;SDS011;39326;42.650;23.248;2023-04-01T23:53:30;0.73;;;0.60;;
53040;SDS011;39326;42.650;23.248;2023-04-01T23:55:58;1.00;;;0.57;;
53040;SDS011;39326;42.650;23.248;2023-04-01T23:58:25;0.80;;;0.60;;
